createdAt,value
2022-11-15T00:00:19.170Z,21.4
2022-11-15T00:01:29.000Z,21.4
2022-11-15T00:02:38.000Z,21.4
2022-11-15T00:03:48.000Z,21.4
2022-11-15T00:04:58.000Z,21.4
2022-11-15T00:06:08.776Z,21.4
2022-11-15T00:07:18.000Z,21.4
2022-11-15T00:08:29.002Z,21.4
2022-11-15T00:09:39.000Z,21.4
2022-11-15T00:10:49.225Z,21.4
2022-11-15T00:11:59.000Z,21.4
2022-11-15T00:13:09.457Z,21.4
2022-11-15T00:14:19.000Z,21.3
2022-11-15T00:15:29.000Z,21.3
2022-11-15T00:16:39.000Z,21.3
2022-11-15T00:17:48.932Z,21.3
2022-11-15T00:18:59.000Z,21.3
2022-11-15T00:20:09.168Z,21.3
2022-11-15T00:21:19.000Z,21.3
2022-11-15T00:22:29.000Z,21.3
2022-11-15T00:23:39.000Z,21.3
2022-11-15T00:24:49.639Z,21.3
2022-11-15T00:25:59.000Z,21.3
2022-11-15T00:27:09.875Z,21.3
2022-11-15T00:28:19.984Z,21.3
2022-11-15T00:29:30.000Z,21.3
2022-11-15T00:30:40.212Z,21.3
2022-11-15T00:31:50.335Z,21.3
2022-11-15T00:32:59.456Z,21.3
2022-11-15T00:34:09.576Z,21.3
2022-11-15T00:35:19.000Z,21.3
2022-11-15T00:36:29.000Z,21.3
2022-11-15T00:37:39.923Z,21.3
2022-11-15T00:38:50.038Z,21.3
2022-11-15T00:40:00.157Z,21.3
2022-11-15T00:41:10.264Z,21.3
2022-11-15T00:42:20.388Z,21.3
2022-11-15T00:43:30.000Z,21.3
2022-11-15T00:44:40.000Z,21.3
2022-11-15T00:45:50.000Z,21.3
2022-11-15T00:47:00.000Z,21.3
2022-11-15T00:48:09.000Z,21.3
2022-11-15T00:49:20.098Z,21.3
2022-11-15T00:50:30.211Z,21.3
2022-11-15T00:51:40.327Z,21.3
2022-11-15T00:52:50.000Z,21.3
2022-11-15T00:54:00.000Z,21.3
2022-11-15T00:55:10.000Z,21.3
2022-11-15T00:56:20.000Z,21.3
2022-11-15T00:57:30.902Z,21.3
2022-11-15T00:58:41.000Z,21.3
2022-11-15T00:59:51.000Z,21.3
2022-11-15T01:01:01.263Z,21.3
2022-11-15T01:02:11.000Z,21.2
2022-11-15T01:03:20.000Z,21.3
2022-11-15T01:04:30.000Z,21.2
2022-11-15T01:05:40.000Z,21.2
2022-11-15T01:06:50.852Z,21.2
2022-11-15T01:08:00.000Z,21.2
2022-11-15T01:09:11.000Z,21.2
2022-11-15T01:10:21.194Z,21.2
2022-11-15T01:11:31.000Z,21.2
2022-11-15T01:12:41.000Z,21.2
2022-11-15T01:13:51.000Z,21.2
2022-11-15T01:15:01.671Z,21.2
2022-11-15T01:16:11.000Z,21.2
2022-11-15T01:17:21.000Z,21.2
2022-11-15T01:18:31.000Z,21.2
2022-11-15T01:19:41.000Z,21.2
2022-11-15T01:20:51.000Z,21.2
2022-11-15T01:22:01.369Z,21.2
2022-11-15T01:23:11.485Z,21.2
2022-11-15T01:24:21.000Z,21.2
2022-11-15T01:25:31.000Z,21.2
2022-11-15T01:26:41.833Z,21.2
2022-11-15T01:27:51.000Z,21.2
2022-11-15T01:29:02.000Z,21.2
2022-11-15T01:30:12.185Z,21.2
2022-11-15T01:31:22.299Z,21.2
2022-11-15T01:32:32.000Z,21.2
2022-11-15T01:33:41.550Z,21.2
2022-11-15T01:34:51.000Z,21.2
2022-11-15T01:36:01.777Z,21.2
2022-11-15T01:37:11.000Z,21.2
2022-11-15T01:38:22.000Z,21.2
2022-11-15T01:39:32.000Z,21.2
2022-11-15T01:40:42.000Z,21.2
2022-11-15T01:41:52.000Z,21.2
2022-11-15T01:43:02.474Z,21.2
2022-11-15T01:44:12.000Z,21.2
2022-11-15T01:45:22.718Z,21.2
2022-11-15T01:46:32.000Z,21.2
2022-11-15T01:47:42.000Z,21.2
2022-11-15T01:48:52.067Z,21.2
2022-11-15T01:50:02.000Z,21.2
2022-11-15T01:51:12.000Z,21.2
2022-11-15T01:52:22.000Z,21.2
2022-11-15T01:53:32.000Z,21.2
2022-11-15T01:54:42.648Z,21.2
2022-11-15T01:55:52.763Z,21.2
2022-11-15T01:57:02.000Z,21.2
2022-11-15T01:58:13.008Z,21.2
2022-11-15T01:59:23.000Z,21.2
2022-11-15T02:00:33.000Z,21.2
2022-11-15T02:01:43.345Z,21.2
2022-11-15T02:02:53.000Z,21.2
2022-11-15T02:04:02.595Z,21.2
2022-11-15T02:05:12.000Z,21.2
2022-11-15T02:06:22.838Z,21.2
2022-11-15T02:07:32.000Z,21.2
2022-11-15T02:08:43.000Z,21.2
2022-11-15T02:09:53.000Z,21.2
2022-11-15T02:11:02.311Z,21.2
2022-11-15T02:12:12.429Z,21.2
2022-11-15T02:13:22.540Z,21.2
2022-11-15T02:14:32.670Z,21.2
2022-11-15T02:15:42.769Z,21.2
2022-11-15T02:16:52.000Z,21.2
2022-11-15T02:19:13.122Z,21.2
2022-11-15T02:20:23.000Z,21.2
2022-11-15T02:21:33.000Z,21.2
2022-11-15T02:22:43.000Z,21.2
2022-11-15T02:23:53.000Z,21.2
2022-11-15T02:25:03.696Z,21.1
2022-11-15T02:26:12.000Z,21.2
2022-11-15T02:27:22.000Z,21.2
2022-11-15T02:28:33.066Z,21.1
2022-11-15T02:29:43.184Z,21.2
2022-11-15T02:30:53.000Z,21.1
2022-11-15T02:32:03.411Z,21.1
2022-11-15T02:33:13.000Z,21.2
2022-11-15T02:34:23.000Z,21.1
2022-11-15T02:35:33.000Z,21.2
2022-11-15T02:36:43.878Z,21.1
2022-11-15T02:37:53.990Z,21.1
2022-11-15T02:39:04.112Z,21.1
2022-11-15T02:40:14.000Z,21.1
2022-11-15T02:41:23.000Z,21.1
2022-11-15T02:42:33.000Z,21.1
2022-11-15T02:43:43.000Z,21.1
2022-11-15T02:44:53.000Z,21.1
2022-11-15T02:46:03.817Z,21.1
2022-11-15T02:47:13.931Z,21.1
2022-11-15T02:48:24.046Z,21.1
2022-11-15T02:49:34.000Z,21.1
2022-11-15T02:50:44.000Z,21.1
2022-11-15T02:51:54.395Z,21.1
2022-11-15T02:53:04.000Z,21.1
2022-11-15T02:54:14.000Z,21.1
2022-11-15T02:55:24.000Z,21.1
2022-11-15T02:56:33.879Z,21.1
2022-11-15T02:57:43.998Z,21.1
2022-11-15T02:58:54.112Z,21.1
2022-11-15T03:00:04.000Z,21.1
2022-11-15T03:01:14.339Z,21.1
2022-11-15T03:02:24.452Z,21.1
2022-11-15T03:03:34.568Z,21.1
2022-11-15T03:04:44.000Z,21.1
2022-11-15T03:05:54.802Z,21.1
2022-11-15T03:07:04.930Z,21.1
2022-11-15T03:08:15.000Z,21.1
2022-11-15T03:09:25.000Z,21.1
2022-11-15T03:10:35.000Z,21.1
2022-11-15T03:11:44.405Z,21.1
2022-11-15T03:12:54.517Z,21.1
2022-11-15T03:14:04.000Z,21.1
2022-11-15T03:15:14.000Z,21.1
2022-11-15T03:16:24.000Z,21.1
2022-11-15T03:17:34.977Z,21.1
2022-11-15T03:18:45.000Z,21.1
2022-11-15T03:19:55.000Z,21.1
2022-11-15T03:21:05.000Z,21.1
2022-11-15T03:22:15.000Z,21.1
2022-11-15T03:23:25.000Z,21.1
2022-11-15T03:24:35.000Z,21.1
2022-11-15T03:25:45.000Z,21.1
2022-11-15T03:26:54.920Z,21.1
2022-11-15T03:28:05.000Z,21.1
2022-11-15T03:29:15.151Z,21.1
2022-11-15T03:30:25.000Z,21.1
2022-11-15T03:31:35.380Z,21.1
2022-11-15T03:32:45.497Z,21.1
2022-11-15T03:33:55.612Z,21.1
2022-11-15T03:35:05.727Z,21.1
2022-11-15T03:36:15.000Z,21.1
2022-11-15T03:37:25.961Z,21.1
2022-11-15T03:38:36.079Z,21.1
2022-11-15T03:39:46.000Z,21.1
2022-11-15T03:40:56.000Z,21.1
2022-11-15T03:42:05.000Z,21.1
2022-11-15T03:43:15.000Z,21.1
2022-11-15T03:44:25.000Z,21.1
2022-11-15T03:45:35.000Z,21.1
2022-11-15T03:46:45.910Z,21.1
2022-11-15T03:47:56.022Z,21.1
2022-11-15T03:49:06.000Z,21.1
2022-11-15T03:50:16.249Z,21.1
2022-11-15T03:51:26.370Z,21.1
2022-11-15T03:52:36.497Z,21.1
2022-11-15T03:53:46.000Z,21.1
2022-11-15T03:54:56.000Z,21.1
2022-11-15T03:56:06.835Z,21.1
2022-11-15T03:57:15.000Z,21.1
2022-11-15T03:58:26.077Z,21.1
2022-11-15T03:59:36.000Z,21.1
2022-11-15T04:00:46.000Z,21.1
2022-11-15T04:01:56.000Z,21.1
2022-11-15T04:03:06.000Z,21.1
2022-11-15T04:04:16.665Z,21.1
2022-11-15T04:05:26.000Z,21.1
2022-11-15T04:06:36.000Z,21.1
2022-11-15T04:07:47.011Z,21.1
2022-11-15T04:08:57.122Z,21.1
2022-11-15T04:10:07.241Z,21.1
2022-11-15T04:11:17.000Z,21.1
2022-11-15T04:12:26.000Z,21.1
2022-11-15T04:13:36.000Z,21.1
2022-11-15T04:14:46.722Z,21.1
2022-11-15T04:15:56.837Z,21
2022-11-15T04:17:06.947Z,21.1
2022-11-15T04:18:17.000Z,21.1
2022-11-15T04:19:27.185Z,21.1
2022-11-15T04:20:37.000Z,21.1
2022-11-15T04:21:47.411Z,21.1
2022-11-15T04:22:57.000Z,21.1
2022-11-15T04:24:07.000Z,21.1
2022-11-15T04:25:17.756Z,21.1
2022-11-15T04:26:27.000Z,21.1
2022-11-15T04:27:37.000Z,21.1
2022-11-15T04:28:47.000Z,21.1
2022-11-15T04:29:57.000Z,21.1
2022-11-15T04:31:07.000Z,21.1
2022-11-15T04:32:17.477Z,21.1
2022-11-15T04:33:27.582Z,21.1
2022-11-15T04:34:37.700Z,21.1
2022-11-15T04:35:47.000Z,21.1
2022-11-15T04:36:57.938Z,21.1
2022-11-15T04:38:08.000Z,21.1
2022-11-15T04:39:18.000Z,21
2022-11-15T04:40:28.285Z,21.1
2022-11-15T04:41:38.393Z,21.1
2022-11-15T04:42:47.530Z,21.1
2022-11-15T04:43:57.000Z,21.1
2022-11-15T04:45:07.000Z,21.1
2022-11-15T04:46:17.000Z,21
2022-11-15T04:47:28.000Z,21.1
2022-11-15T04:48:38.000Z,21.1
2022-11-15T04:49:48.000Z,21.1
2022-11-15T04:50:58.000Z,21
2022-11-15T04:52:08.452Z,21.1
2022-11-15T04:53:18.000Z,21.1
2022-11-15T04:54:28.000Z,21.1
2022-11-15T04:55:38.803Z,21
2022-11-15T04:56:48.000Z,21
2022-11-15T04:57:58.000Z,21
2022-11-15T04:59:08.000Z,21.1
2022-11-15T05:00:18.000Z,21
2022-11-15T05:01:28.000Z,21.1
2022-11-15T05:02:38.000Z,21.1
2022-11-15T05:03:48.000Z,21.1
2022-11-15T05:04:58.749Z,21
2022-11-15T05:06:08.000Z,21
2022-11-15T05:07:18.000Z,21.1
2022-11-15T05:08:29.088Z,21
2022-11-15T05:09:39.000Z,21
2022-11-15T05:10:49.000Z,21
2022-11-15T05:11:59.000Z,21.1
2022-11-15T05:13:08.000Z,21
2022-11-15T05:14:18.684Z,21.1
2022-11-15T05:15:28.000Z,21
2022-11-15T05:16:38.000Z,21
2022-11-15T05:17:49.000Z,21.1
2022-11-15T05:18:59.000Z,21
2022-11-15T05:20:09.000Z,21
2022-11-15T05:21:19.000Z,21.1
2022-11-15T05:22:29.000Z,21
2022-11-15T05:23:39.609Z,21
2022-11-15T05:24:49.727Z,21.1
2022-11-15T05:25:59.854Z,21
2022-11-15T05:27:09.000Z,21.1
2022-11-15T05:28:19.000Z,21.1
2022-11-15T05:29:29.000Z,21
2022-11-15T05:30:39.000Z,21.1
2022-11-15T05:31:49.000Z,21
2022-11-15T05:32:59.552Z,21
2022-11-15T05:34:09.670Z,21
2022-11-15T05:35:19.000Z,21
2022-11-15T05:36:29.903Z,21
2022-11-15T05:37:40.000Z,21
2022-11-15T05:38:50.138Z,21
2022-11-15T05:40:00.000Z,21
2022-11-15T05:41:10.365Z,21
2022-11-15T05:42:20.487Z,21
2022-11-15T05:43:29.617Z,21
2022-11-15T05:44:39.000Z,21
2022-11-15T05:45:49.000Z,21
2022-11-15T05:46:59.963Z,21.1
2022-11-15T05:48:10.088Z,21
2022-11-15T05:49:20.000Z,21
2022-11-15T05:50:30.000Z,21
2022-11-15T05:51:40.000Z,21
2022-11-15T05:52:50.546Z,21
2022-11-15T05:54:00.654Z,21
2022-11-15T05:55:10.000Z,21
2022-11-15T05:56:20.000Z,21
2022-11-15T05:57:31.000Z,21
2022-11-15T05:58:40.135Z,21
2022-11-15T05:59:50.251Z,21
2022-11-15T06:01:00.000Z,21
2022-11-15T06:02:10.481Z,21
2022-11-15T06:03:20.000Z,21
2022-11-15T06:04:30.000Z,21
2022-11-15T06:05:39.000Z,21
2022-11-15T06:06:49.000Z,21
2022-11-15T06:08:00.084Z,21
2022-11-15T06:09:10.000Z,21
2022-11-15T06:10:20.000Z,21.1
2022-11-15T06:11:30.428Z,21.1
2022-11-15T06:12:40.000Z,21.1
2022-11-15T06:13:50.667Z,21.1
2022-11-15T06:15:00.782Z,21.1
2022-11-15T06:16:10.894Z,21.1
2022-11-15T06:17:21.024Z,21.1
2022-11-15T06:18:31.000Z,21.2
2022-11-15T06:19:41.000Z,21.2
2022-11-15T06:20:50.377Z,21.2
2022-11-15T06:22:00.000Z,21.2
2022-11-15T06:23:10.616Z,21.2
2022-11-15T06:24:20.721Z,21.3
2022-11-15T06:25:30.841Z,21.3
2022-11-15T06:26:40.000Z,21.3
2022-11-15T06:27:51.067Z,21.3
2022-11-15T06:29:01.000Z,21.3
2022-11-15T06:30:11.000Z,21.3
2022-11-15T06:31:21.000Z,21.4
2022-11-15T06:32:31.000Z,21.4
2022-11-15T06:33:41.000Z,21.4
2022-11-15T06:34:51.000Z,21.4
2022-11-15T06:36:00.899Z,21.5
2022-11-15T06:37:11.000Z,21.5
2022-11-15T06:38:21.128Z,21.5
2022-11-15T06:39:31.000Z,21.5
2022-11-15T06:40:41.357Z,21.6
2022-11-15T06:41:51.472Z,21.6
2022-11-15T06:43:01.600Z,21.6
2022-11-15T06:44:11.000Z,21.6
2022-11-15T06:45:21.000Z,21.6
2022-11-15T06:46:31.000Z,21.7
2022-11-15T06:47:42.051Z,21.7
2022-11-15T06:48:52.187Z,21.7
2022-11-15T06:50:02.000Z,21.8
2022-11-15T06:51:11.418Z,21.8
2022-11-15T06:52:21.530Z,21.8
2022-11-15T06:53:31.000Z,21.8
2022-11-15T06:54:41.000Z,21.8
2022-11-15T06:55:51.886Z,21.8
2022-11-15T06:57:02.001Z,21.9
2022-11-15T06:58:12.000Z,21.9
2022-11-15T06:59:22.265Z,21.9
2022-11-15T07:00:32.000Z,21.9
2022-11-15T07:01:42.497Z,21.9
2022-11-15T07:02:52.617Z,21.9
2022-11-15T07:04:02.746Z,22
2022-11-15T07:05:12.847Z,22
2022-11-15T07:06:21.988Z,22
2022-11-15T07:07:32.000Z,22
2022-11-15T07:08:42.214Z,22
2022-11-15T07:09:52.000Z,22
2022-11-15T07:11:02.445Z,22
2022-11-15T07:12:12.000Z,22
2022-11-15T07:13:22.685Z,22.1
2022-11-15T07:14:32.000Z,22.1
2022-11-15T07:15:42.000Z,22.1
2022-11-15T07:16:53.023Z,22.1
2022-11-15T07:18:03.000Z,22.1
2022-11-15T07:19:13.253Z,22.1
2022-11-15T07:20:23.000Z,22.1
2022-11-15T07:21:32.000Z,22.1
2022-11-15T07:22:42.000Z,22.1
2022-11-15T07:23:52.730Z,22.1
2022-11-15T07:25:02.000Z,22.1
2022-11-15T07:26:12.965Z,22.2
2022-11-15T07:27:23.000Z,22.2
2022-11-15T07:28:33.198Z,22.2
2022-11-15T07:29:43.324Z,22.2
2022-11-15T07:30:53.432Z,22.2
2022-11-15T07:32:03.000Z,22.2
2022-11-15T07:33:13.000Z,22.2
2022-11-15T07:34:23.773Z,22.2
2022-11-15T07:35:33.000Z,22.2
2022-11-15T07:36:43.000Z,22.2
2022-11-15T07:37:53.000Z,22.2
2022-11-15T07:39:03.261Z,22.2
2022-11-15T07:40:13.000Z,22.2
2022-11-15T07:41:23.000Z,22.2
2022-11-15T07:42:33.603Z,22.2
2022-11-15T07:43:43.719Z,22.2
2022-11-15T07:44:53.000Z,22.2
2022-11-15T07:46:03.000Z,22.2
2022-11-15T07:47:14.000Z,22.3
2022-11-15T07:48:24.000Z,22.3
2022-11-15T07:49:34.000Z,22.3
2022-11-15T07:50:44.000Z,22.3
2022-11-15T07:51:53.000Z,22.3
2022-11-15T07:53:03.000Z,22.3
2022-11-15T07:54:13.791Z,22.3
2022-11-15T07:55:23.897Z,22.3
2022-11-15T07:56:34.000Z,22.3
2022-11-15T07:57:44.000Z,22.3
2022-11-15T07:58:54.244Z,22.3
2022-11-15T08:00:04.000Z,22.3
2022-11-15T08:01:14.479Z,22.3
2022-11-15T08:02:24.588Z,22.3
2022-11-15T08:03:34.710Z,22.3
2022-11-15T08:04:44.000Z,22.3
2022-11-15T08:05:54.000Z,22.3
2022-11-15T08:07:04.000Z,22.3
2022-11-15T08:08:14.000Z,22.3
2022-11-15T08:09:24.000Z,22.3
2022-11-15T08:10:34.427Z,22.3
2022-11-15T08:11:44.538Z,22.3
2022-11-15T08:12:54.655Z,22.3
2022-11-15T08:14:04.780Z,22.3
2022-11-15T08:15:14.000Z,22.3
2022-11-15T08:16:25.001Z,22.3
2022-11-15T08:17:35.000Z,22.3
2022-11-15T08:18:45.234Z,22.3
2022-11-15T08:19:55.343Z,22.3
2022-11-15T08:21:05.461Z,22.3
2022-11-15T08:22:14.594Z,22.3
2022-11-15T08:23:24.000Z,22.3
2022-11-15T08:24:34.827Z,22.3
2022-11-15T08:25:44.000Z,22.3
2022-11-15T08:26:55.057Z,22.3
2022-11-15T08:28:05.000Z,22.3
2022-11-15T08:29:15.000Z,22.3
2022-11-15T08:30:25.000Z,22.3
2022-11-15T08:32:45.000Z,22.3
2022-11-15T08:33:55.000Z,22.4
2022-11-15T08:35:05.869Z,22.3
2022-11-15T08:36:15.000Z,22.4
2022-11-15T08:37:25.000Z,22.4
2022-11-15T08:38:35.000Z,22.4
2022-11-15T08:39:45.349Z,22.3
2022-11-15T08:40:55.000Z,22.4
2022-11-15T08:42:05.582Z,22.4
2022-11-15T08:43:15.000Z,22.4
2022-11-15T08:44:25.000Z,22.4
2022-11-15T08:45:35.000Z,22.4
2022-11-15T08:46:46.000Z,22.4
2022-11-15T08:47:56.156Z,22.4
2022-11-15T08:49:06.278Z,22.4
2022-11-15T08:50:16.000Z,22.4
2022-11-15T08:51:26.503Z,22.4
2022-11-15T08:52:35.000Z,22.4
2022-11-15T08:53:45.754Z,22.4
2022-11-15T08:54:55.000Z,22.4
2022-11-15T08:56:05.000Z,22.4
2022-11-15T08:57:16.000Z,22.4
2022-11-15T08:58:26.216Z,22.4
2022-11-15T08:59:36.345Z,22.4
2022-11-15T09:00:46.000Z,22.4
2022-11-15T09:01:56.000Z,22.4
2022-11-15T09:03:06.000Z,22.4
2022-11-15T09:04:16.000Z,22.4
2022-11-15T09:05:26.000Z,22.4
2022-11-15T09:06:37.028Z,22.4
2022-11-15T09:07:46.161Z,22.4
2022-11-15T09:08:56.280Z,22.4
2022-11-15T09:10:06.000Z,22.4
2022-11-15T09:11:16.000Z,22.4
2022-11-15T09:12:26.623Z,22.4
2022-11-15T09:13:36.739Z,22.4
2022-11-15T09:14:46.861Z,22.4
2022-11-15T09:15:56.000Z,22.5
2022-11-15T09:17:07.000Z,22.4
2022-11-15T09:18:17.199Z,22.5
2022-11-15T09:19:27.000Z,22.5
2022-11-15T09:20:37.000Z,22.5
2022-11-15T09:21:47.550Z,22.5
2022-11-15T09:22:56.000Z,22.5
2022-11-15T09:24:06.796Z,22.5
2022-11-15T09:25:16.913Z,22.5
2022-11-15T09:26:27.000Z,22.5
2022-11-15T09:27:37.000Z,22.5
2022-11-15T09:28:47.000Z,22.5
2022-11-15T09:29:57.000Z,22.5
2022-11-15T09:31:07.000Z,22.5
2022-11-15T09:32:17.000Z,22.5
2022-11-15T09:33:27.728Z,22.5
2022-11-15T09:34:37.000Z,22.5
2022-11-15T09:35:47.000Z,22.5
2022-11-15T09:36:58.000Z,22.5
2022-11-15T09:38:07.207Z,22.5
2022-11-15T09:39:17.320Z,22.5
2022-11-15T09:40:27.000Z,22.5
2022-11-15T09:41:37.556Z,22.5
2022-11-15T09:42:47.000Z,22.5
2022-11-15T09:43:57.000Z,22.5
2022-11-15T09:45:07.000Z,22.5
2022-11-15T09:46:18.014Z,22.5
2022-11-15T09:47:28.000Z,22.5
2022-11-15T09:48:38.000Z,22.5
2022-11-15T09:49:48.000Z,22.5
2022-11-15T09:50:58.000Z,22.5
2022-11-15T09:52:08.000Z,22.5
2022-11-15T09:53:17.759Z,22.5
2022-11-15T09:54:27.841Z,22.5
2022-11-15T09:55:37.000Z,22.5
2022-11-15T09:56:48.087Z,22.5
2022-11-15T09:57:58.192Z,22.5
2022-11-15T09:59:08.304Z,22.5
2022-11-15T10:00:17.000Z,22.5
2022-11-15T10:01:27.558Z,22.5
2022-11-15T10:02:37.678Z,22.5
2022-11-15T10:03:47.000Z,22.5
2022-11-15T10:04:57.915Z,22.5
2022-11-15T10:06:08.000Z,22.5
2022-11-15T10:07:18.000Z,22.5
2022-11-15T10:08:28.256Z,22.5
2022-11-15T10:09:38.000Z,22.5
2022-11-15T10:10:48.000Z,22.5
2022-11-15T10:11:58.000Z,22.5
2022-11-15T10:13:08.000Z,22.6
2022-11-15T10:14:18.000Z,22.5
2022-11-15T10:15:27.964Z,22.5
2022-11-15T10:16:38.000Z,22.5
2022-11-15T10:17:48.000Z,22.5
2022-11-15T10:18:58.000Z,22.5
2022-11-15T10:20:08.000Z,22.5
2022-11-15T10:21:18.000Z,22.5
2022-11-15T10:22:28.000Z,22.5
2022-11-15T10:23:38.000Z,22.6
2022-11-15T10:24:48.900Z,22.6
2022-11-15T10:25:59.011Z,22.6
2022-11-15T10:27:09.149Z,22.6
2022-11-15T10:28:19.000Z,22.6
2022-11-15T10:29:29.359Z,22.6
2022-11-15T10:30:38.000Z,22.6
2022-11-15T10:31:48.000Z,22.6
2022-11-15T10:32:58.000Z,22.6
2022-11-15T10:34:08.845Z,22.6
2022-11-15T10:35:18.954Z,22.6
2022-11-15T10:36:29.000Z,22.6
2022-11-15T10:37:39.194Z,22.6
2022-11-15T10:38:49.314Z,22.6
2022-11-15T10:39:59.000Z,22.6
2022-11-15T10:41:09.544Z,22.6
2022-11-15T10:42:19.000Z,22.6
2022-11-15T10:43:29.763Z,22.6
2022-11-15T10:44:39.000Z,22.6
2022-11-15T10:45:49.000Z,22.6
2022-11-15T10:46:59.000Z,22.6
2022-11-15T10:48:09.244Z,22.6
2022-11-15T10:49:19.000Z,22.7
2022-11-15T10:50:29.474Z,22.7
2022-11-15T10:51:39.589Z,22.7
2022-11-15T10:52:49.717Z,22.7
2022-11-15T10:53:59.000Z,22.7
2022-11-15T10:55:09.000Z,22.7
2022-11-15T10:56:20.056Z,22.7
2022-11-15T10:57:30.180Z,22.7
2022-11-15T10:58:40.285Z,22.7
2022-11-15T10:59:50.000Z,22.7
2022-11-15T11:00:59.000Z,22.7
2022-11-15T11:02:09.000Z,22.8
2022-11-15T11:03:19.771Z,22.8
2022-11-15T11:04:29.000Z,22.8
2022-11-15T11:05:40.003Z,22.8
2022-11-15T11:06:50.000Z,22.8
2022-11-15T11:08:00.245Z,22.8
2022-11-15T11:09:10.344Z,22.9
2022-11-15T11:10:20.000Z,22.9
2022-11-15T11:11:30.578Z,22.9
2022-11-15T11:12:40.698Z,22.9
2022-11-15T11:13:50.000Z,22.9
2022-11-15T11:15:00.923Z,23
2022-11-15T11:16:10.000Z,23
2022-11-15T11:17:20.000Z,23
2022-11-15T11:18:30.000Z,23.1
2022-11-15T11:19:40.403Z,23.1
2022-11-15T11:20:50.000Z,23.1
2022-11-15T11:22:00.000Z,23.2
2022-11-15T11:23:10.756Z,23.1
2022-11-15T11:24:20.000Z,23.1
2022-11-15T11:25:30.000Z,23.2
2022-11-15T11:26:41.100Z,23.2
2022-11-15T11:27:51.000Z,23.2
2022-11-15T11:29:01.335Z,23.2
2022-11-15T11:30:11.000Z,23.2
2022-11-15T11:31:20.000Z,23.2
2022-11-15T11:32:30.000Z,23.2
2022-11-15T11:33:40.833Z,23.2
2022-11-15T11:34:50.927Z,23.2
2022-11-15T11:36:01.045Z,23.2
2022-11-15T11:37:11.000Z,23.3
2022-11-15T11:38:21.277Z,23.2
2022-11-15T11:39:31.000Z,23.2
2022-11-15T11:40:41.509Z,23.1
2022-11-15T11:41:51.000Z,23.2
2022-11-15T11:43:01.000Z,23.2
2022-11-15T11:44:11.000Z,23.2
2022-11-15T11:45:21.968Z,23.2
2022-11-15T11:46:31.000Z,23.2
2022-11-15T11:47:41.000Z,23.3
2022-11-15T11:48:51.000Z,23.3
2022-11-15T11:50:01.000Z,23.3
2022-11-15T11:51:11.000Z,23.3
2022-11-15T11:52:21.000Z,23.3
2022-11-15T11:53:31.000Z,23.3
2022-11-15T11:55:52.000Z,23.3
2022-11-15T11:57:02.000Z,23.3
2022-11-15T11:58:12.262Z,23.3
2022-11-15T11:59:22.000Z,23.3
2022-11-15T12:00:32.000Z,23.3
2022-11-15T12:01:41.623Z,23.3
2022-11-15T12:02:51.000Z,23.4
2022-11-15T12:04:01.000Z,23.4
2022-11-15T12:05:11.971Z,23.4
2022-11-15T12:06:22.000Z,23.4
2022-11-15T12:07:32.000Z,23.4
2022-11-15T12:08:42.317Z,23.4
2022-11-15T12:09:52.434Z,23.4
2022-11-15T12:11:02.558Z,23.5
2022-11-15T12:12:12.669Z,23.5
2022-11-15T12:13:22.000Z,23.5
2022-11-15T12:14:32.902Z,23.5
2022-11-15T12:15:43.016Z,23.5
2022-11-15T12:16:52.000Z,23.5
2022-11-15T12:18:02.000Z,23.6
2022-11-15T12:19:12.380Z,23.6
2022-11-15T12:20:22.495Z,23.6
2022-11-15T12:21:32.000Z,23.6
2022-11-15T12:22:42.727Z,23.6
2022-11-15T12:23:52.000Z,23.6
2022-11-15T12:25:02.961Z,23.6
2022-11-15T12:26:13.073Z,23.6
2022-11-15T12:27:23.000Z,23.6
2022-11-15T12:28:33.314Z,23.6
2022-11-15T12:29:43.435Z,23.6
2022-11-15T12:30:53.000Z,23.6
2022-11-15T12:32:02.000Z,23.6
2022-11-15T12:33:12.793Z,23.6
2022-11-15T12:34:22.000Z,23.6
2022-11-15T12:35:33.018Z,23.6
2022-11-15T12:36:43.140Z,23.6
2022-11-15T12:37:53.264Z,23.6
2022-11-15T12:39:03.378Z,23.6
2022-11-15T12:40:13.480Z,23.6
2022-11-15T12:41:23.000Z,23.6
2022-11-15T12:42:33.000Z,23.6
2022-11-15T12:44:53.000Z,23.6
2022-11-15T12:46:04.000Z,23.6
2022-11-15T12:47:13.193Z,23.6
2022-11-15T12:48:23.314Z,23.6
2022-11-15T12:49:33.000Z,23.6
2022-11-15T12:50:43.000Z,23.6
2022-11-15T12:51:53.000Z,23.6
2022-11-15T12:53:03.000Z,23.6
2022-11-15T12:54:13.922Z,23.6
2022-11-15T12:55:24.000Z,23.6
2022-11-15T12:56:34.000Z,23.6
2022-11-15T12:57:44.275Z,23.7
2022-11-15T12:58:54.389Z,23.7
2022-11-15T13:00:04.000Z,23.7
2022-11-15T13:01:14.000Z,23.7
2022-11-15T13:02:23.748Z,23.7
2022-11-15T13:03:33.000Z,23.7
2022-11-15T13:05:54.100Z,23.7
2022-11-15T13:07:04.209Z,23.7
2022-11-15T13:08:14.000Z,23.8
2022-11-15T13:09:24.000Z,23.7
2022-11-15T13:10:34.000Z,23.8
2022-11-15T13:11:44.000Z,23.8
2022-11-15T13:12:54.798Z,23.8
2022-11-15T13:14:04.914Z,23.8
2022-11-15T13:15:15.000Z,23.8
2022-11-15T13:16:25.135Z,23.8
2022-11-15T13:17:34.000Z,23.8
2022-11-15T13:18:44.387Z,23.8
2022-11-15T13:19:54.000Z,23.8
2022-11-15T13:21:04.615Z,23.8
2022-11-15T13:22:14.730Z,23.9
2022-11-15T13:23:24.853Z,23.8
2022-11-15T13:24:34.000Z,23.9
2022-11-15T13:25:45.085Z,23.9
2022-11-15T13:26:55.205Z,23.9
2022-11-15T13:28:05.000Z,23.9
2022-11-15T13:29:15.000Z,23.9
2022-11-15T13:30:25.553Z,23.9
2022-11-15T13:31:35.000Z,23.9
2022-11-15T13:32:44.792Z,23.9
2022-11-15T13:33:54.000Z,23.9
2022-11-15T13:35:05.000Z,23.9
2022-11-15T13:36:15.000Z,23.9
2022-11-15T13:37:25.259Z,23.9
2022-11-15T13:38:35.384Z,23.9
2022-11-15T13:39:45.489Z,23.9
2022-11-15T13:40:55.000Z,23.9
2022-11-15T13:42:05.719Z,24
2022-11-15T13:43:15.000Z,24
2022-11-15T13:44:25.000Z,24
2022-11-15T13:45:36.072Z,24
2022-11-15T13:46:46.189Z,24
2022-11-15T13:47:55.323Z,24
2022-11-15T13:49:05.000Z,24
2022-11-15T13:50:15.545Z,24
2022-11-15T13:51:25.000Z,24
2022-11-15T13:52:35.000Z,24
2022-11-15T13:53:45.000Z,24
2022-11-15T13:54:55.000Z,24
2022-11-15T13:56:05.165Z,24
2022-11-15T13:57:15.271Z,24.1
2022-11-15T13:58:25.396Z,24
2022-11-15T13:59:35.503Z,24.1
2022-11-15T14:00:45.618Z,24.1
2022-11-15T14:01:55.732Z,24.1
2022-11-15T14:03:05.847Z,24.1
2022-11-15T14:04:15.000Z,24.1
2022-11-15T14:05:26.074Z,24.1
2022-11-15T14:06:36.198Z,24.1
2022-11-15T14:07:46.307Z,24.1
2022-11-15T14:08:56.000Z,24.1
2022-11-15T14:10:05.000Z,24.1
2022-11-15T14:11:15.679Z,24.1
2022-11-15T14:12:25.795Z,24.1
2022-11-15T14:13:35.904Z,24.1
2022-11-15T14:14:46.000Z,24
2022-11-15T14:15:56.000Z,24
2022-11-15T14:17:06.250Z,24
2022-11-15T14:18:16.000Z,24
2022-11-15T14:19:26.000Z,24
2022-11-15T14:20:36.597Z,24
2022-11-15T14:21:46.713Z,24
2022-11-15T14:22:56.829Z,24
2022-11-15T14:24:06.000Z,24
2022-11-15T14:25:16.079Z,24
2022-11-15T14:26:26.209Z,23.9
2022-11-15T14:27:36.000Z,24
2022-11-15T14:28:46.437Z,23.9
2022-11-15T14:29:56.551Z,23.9
2022-11-15T14:31:06.657Z,23.9
2022-11-15T14:32:16.781Z,23.9
2022-11-15T14:33:26.000Z,23.9
2022-11-15T14:34:37.018Z,23.9
2022-11-15T14:35:47.000Z,23.9
2022-11-15T14:36:57.000Z,23.9
2022-11-15T14:38:07.000Z,23.9
2022-11-15T14:39:17.473Z,23.9
2022-11-15T14:40:26.601Z,23.9
2022-11-15T14:41:36.000Z,23.9
2022-11-15T14:42:46.000Z,23.9
2022-11-15T14:43:56.000Z,23.9
2022-11-15T14:45:07.000Z,23.9
2022-11-15T14:46:17.000Z,23.9
2022-11-15T14:47:27.000Z,23.9
2022-11-15T14:48:37.000Z,23.9
2022-11-15T14:49:47.000Z,23.9
2022-11-15T14:50:57.000Z,23.9
2022-11-15T14:52:07.000Z,23.9
2022-11-15T14:53:17.885Z,23.9
2022-11-15T14:54:27.994Z,24
2022-11-15T14:55:37.131Z,24
2022-11-15T14:56:47.245Z,23.9
2022-11-15T14:57:57.371Z,24
2022-11-15T14:59:07.000Z,24
2022-11-15T15:00:17.591Z,24
2022-11-15T15:01:27.000Z,24
2022-11-15T15:02:37.833Z,24
2022-11-15T15:03:47.941Z,24
2022-11-15T15:04:58.000Z,24
2022-11-15T15:06:08.000Z,24
2022-11-15T15:07:18.295Z,24
2022-11-15T15:08:28.000Z,24
2022-11-15T15:09:38.535Z,24
2022-11-15T15:10:47.000Z,24
2022-11-15T15:11:57.000Z,24
2022-11-15T15:13:07.000Z,24
2022-11-15T15:14:18.000Z,23.9
2022-11-15T15:15:28.000Z,24
2022-11-15T15:16:38.000Z,23.9
2022-11-15T15:17:48.350Z,23.9
2022-11-15T15:18:58.474Z,23.9
2022-11-15T15:20:08.580Z,23.9
2022-11-15T15:21:18.000Z,23.9
2022-11-15T15:22:28.000Z,23.9
2022-11-15T15:23:38.000Z,23.9
2022-11-15T15:24:49.000Z,23.9
2022-11-15T15:25:58.000Z,23.9
2022-11-15T15:27:08.303Z,23.9
2022-11-15T15:28:18.411Z,23.9
2022-11-15T15:29:28.523Z,23.9
2022-11-15T15:30:38.636Z,23.9
2022-11-15T15:31:48.000Z,23.9
2022-11-15T15:32:58.000Z,23.9
2022-11-15T15:34:08.000Z,23.9
2022-11-15T15:35:19.000Z,23.9
2022-11-15T15:36:29.000Z,23.9
2022-11-15T15:37:39.000Z,23.9
2022-11-15T15:38:49.000Z,23.8
2022-11-15T15:39:59.000Z,23.9
2022-11-15T15:41:08.699Z,23.8
2022-11-15T15:42:18.000Z,23.9
2022-11-15T15:43:28.929Z,23.9
2022-11-15T15:44:39.000Z,23.9
2022-11-15T15:45:49.000Z,23.9